Time;durP1;ratioP1;P1;durP2;ratioP2;P2;SDS_P1;SDS_P2;PMS_P1;PMS_P2;Temp;Humidity;BMP_temperature;BMP_pressure;BME280_temperature;BME280_humidity;BME280_pressure;Samples;Min_cycle;Max_cycle;Signal;HPM_P1;HPM_P2
2021/09/12 00:00:48;;;;;;;0.10;0.10;;;;;;;17.03;98.02;101662.09;10558522;28;20023;-67
2021/09/12 00:05:48;;;;;;;0.10;0.10;;;;;;;16.98;98.02;101654.56;10560617;28;20016;-67
2021/09/12 00:10:48;;;;;;;0.10;0.10;;;;;;;16.94;98.18;101647.03;10556109;28;20476;-68
2021/09/12 00:15:49;;;;;;;0.10;0.10;;;;;;;16.91;98.77;101645.53;10548318;28;20033;-67
2021/09/12 00:20:50;;;;;;;0.10;0.10;;;;;;;16.88;97.29;101639.69;10517531;28;20019;-68
2021/09/12 00:25:50;;;;;;;0.10;0.10;;;;;;;16.87;98.29;101646.94;10550121;28;20019;-68
2021/09/12 00:30:51;;;;;;;0.10;0.10;;;;;;;16.86;97.40;101655.19;10544954;28;20024;-67
2021/09/12 00:35:51;;;;;;;0.10;0.10;;;;;;;16.85;97.74;101653.50;10538219;28;20122;-67
2021/09/12 00:40:56;;;;;;;0.10;0.10;;;;;;;16.86;97.39;101644.41;10533546;28;20020;-68
2021/09/12 00:45:58;;;;;;;0.10;0.10;;;;;;;16.87;98.25;101640.69;10537749;28;20028;-68
2021/09/12 00:50:58;;;;;;;0.10;0.10;;;;;;;16.87;99.02;101643.38;10546992;28;20198;-67
2021/09/12 00:56:00;;;;;;;0.10;0.10;;;;;;;16.85;98.57;101638.19;10548580;28;20118;-67
2021/09/12 01:01:00;;;;;;;0.10;0.10;;;;;;;16.86;99.11;101636.34;10539572;28;20011;-66
2021/09/12 01:06:01;;;;;;;0.10;0.10;;;;;;;16.86;99.17;101644.41;10541594;28;20445;-65
2021/09/12 01:11:02;;;;;;;0.10;0.10;;;;;;;16.85;98.24;101635.50;10537352;28;20094;-68
2021/09/12 01:16:12;;;;;;;0.00;0.00;;;;;;;16.87;98.82;101632.63;10551377;28;20486;-68
2021/09/12 01:21:15;;;;;;;0.10;0.10;;;;;;;16.87;98.58;101633.47;10560204;28;20552;-66
2021/09/12 01:26:24;;;;;;;0.10;0.10;;;;;;;16.87;98.73;101636.19;10549038;28;20028;-67
2021/09/12 01:31:30;;;;;;;0.10;0.10;;;;;;;16.86;98.47;101626.41;10551358;28;20104;-67
2021/09/12 01:36:30;;;;;;;0.10;0.10;;;;;;;16.87;99.21;101638.00;10550628;28;20115;-67
2021/09/12 01:41:31;;;;;;;0.10;0.10;;;;;;;16.88;99.00;101626.25;10548818;28;20020;-66
2021/09/12 01:46:32;;;;;;;0.10;0.10;;;;;;;16.86;98.91;101621.03;10553754;28;20034;-67
2021/09/12 01:51:32;;;;;;;0.10;0.10;;;;;;;16.83;98.93;101613.31;10564980;28;20028;-67
2021/09/12 01:56:33;;;;;;;0.10;0.10;;;;;;;16.83;99.22;101629.47;10544405;28;20047;-67
2021/09/12 02:01:33;;;;;;;0.10;0.10;;;;;;;16.82;98.91;101625.09;10549899;28;20024;-67
2021/09/12 02:06:33;;;;;;;0.10;0.10;;;;;;;16.83;98.50;101631.31;10519794;28;20352;-68
2021/09/12 02:11:34;;;;;;;0.10;0.10;;;;;;;16.79;98.04;101620.09;10547146;28;20442;-68
2021/09/12 02:16:34;;;;;;;0.10;0.10;;;;;;;16.70;97.55;101626.53;10567665;28;20019;-67
2021/09/12 02:21:34;;;;;;;0.10;0.10;;;;;;;16.61;98.52;101630.28;10547124;28;20032;-68
2021/09/12 02:26:35;;;;;;;0.10;0.10;;;;;;;16.54;98.20;101627.47;10536380;28;21551;-67
2021/09/12 02:31:35;;;;;;;0.08;0.08;;;;;;;16.59;98.45;101633.16;10566696;28;20441;-68
2021/09/12 02:36:35;;;;;;;0.10;0.10;;;;;;;16.62;98.47;101640.88;10547486;28;20024;-67
2021/09/12 02:41:36;;;;;;;0.10;0.10;;;;;;;16.62;98.30;101643.56;10574785;28;20023;-67
2021/09/12 02:46:36;;;;;;;0.10;0.10;;;;;;;16.60;97.51;101645.56;10562278;28;20032;-67
2021/09/12 02:51:36;;;;;;;0.10;0.10;;;;;;;16.57;97.57;101643.25;10565554;28;20027;-67
2021/09/12 02:56:37;;;;;;;0.10;0.10;;;;;;;16.52;97.34;101637.56;10523722;28;20023;-66
2021/09/12 03:01:37;;;;;;;0.10;0.10;;;;;;;16.46;97.70;101635.59;10548261;28;20272;-68
2021/09/12 03:06:37;;;;;;;0.00;0.00;;;;;;;16.39;97.72;101637.31;10558897;28;20061;-67
2021/09/12 03:11:37;;;;;;;0.10;0.10;;;;;;;16.34;98.31;101631.63;10558814;28;20038;-67
2021/09/12 03:16:38;;;;;;;0.10;0.10;;;;;;;16.28;98.08;101631.31;10570417;28;20488;-67
2021/09/12 03:21:38;;;;;;;0.10;0.10;;;;;;;16.22;99.38;101632.03;10561289;28;20024;-68
2021/09/12 03:26:38;;;;;;;0.10;0.10;;;;;;;16.17;99.52;101623.66;10538078;28;20026;-67
2021/09/12 03:31:39;;;;;;;0.10;0.10;;;;;;;16.14;99.95;101626.69;10539020;28;20023;-67
2021/09/12 03:36:39;;;;;;;0.10;0.10;;;;;;;16.10;100.00;101621.88;10560101;28;20068;-67
2021/09/12 03:41:39;;;;;;;0.10;0.10;;;;;;;16.09;99.98;101626.41;10554979;28;20426;-67
2021/09/12 03:46:40;;;;;;;0.10;0.10;;;;;;;16.07;99.39;101623.06;10552375;28;20073;-67
2021/09/12 03:51:40;;;;;;;0.10;0.10;;;;;;;16.07;100.00;101629.25;10552934;28;20024;-67
2021/09/12 03:56:40;;;;;;;0.10;0.10;;;;;;;16.09;100.00;101630.94;10545183;28;20024;-67
2021/09/12 04:01:41;;;;;;;0.00;0.00;;;;;;;16.07;99.87;101626.56;10551641;28;20013;-68
2021/09/12 04:06:41;;;;;;;0.10;0.10;;;;;;;16.08;100.00;101632.78;10530912;28;20033;-67
2021/09/12 04:11:41;;;;;;;0.00;0.00;;;;;;;16.09;100.00;101626.41;10565836;28;20058;-67
2021/09/12 04:16:43;;;;;;;0.10;0.10;;;;;;;16.10;100.00;101632.63;10559538;28;20422;-67
2021/09/12 04:21:44;;;;;;;0.00;0.00;;;;;;;16.11;99.96;101631.59;10544257;28;20060;-67
2021/09/12 04:26:44;;;;;;;0.10;0.10;;;;;;;16.11;99.72;101624.38;10536187;28;20067;-66
2021/09/12 04:31:44;;;;;;;0.00;0.00;;;;;;;16.10;100.00;101630.75;10551958;28;20076;-67
2021/09/12 04:36:45;;;;;;;0.10;0.10;;;;;;;16.12;99.99;101638.66;10546784;28;20015;-67
2021/09/12 04:41:45;;;;;;;0.10;0.10;;;;;;;16.15;100.00;101631.06;10542127;28;20012;-67
2021/09/12 04:46:45;;;;;;;0.10;0.10;;;;;;;16.17;99.65;101622.81;10549579;28;20022;-67
2021/09/12 04:51:46;;;;;;;0.10;0.10;;;;;;;16.18;100.00;101632.56;10547618;28;20391;-67
2021/09/12 04:56:46;;;;;;;0.10;0.10;;;;;;;16.20;100.00;101622.47;10543309;28;20118;-67
2021/09/12 05:01:47;;;;;;;0.10;0.10;;;;;;;16.22;100.00;101631.19;10561543;28;20026;-68
2021/09/12 05:06:47;;;;;;;0.10;0.10;;;;;;;16.24;99.50;101638.06;10570882;28;20423;-68
2021/09/12 05:11:47;;;;;;;0.10;0.10;;;;;;;16.24;100.00;101634.56;10573632;28;20129;-67
2021/09/12 05:16:48;;;;;;;0.00;0.00;;;;;;;16.26;100.00;101641.44;10573234;28;20099;-67
2021/09/12 05:21:48;;;;;;;0.10;0.10;;;;;;;16.27;100.00;101643.09;10579509;28;20034;-67
2021/09/12 05:26:49;;;;;;;0.00;0.00;;;;;;;16.29;99.91;101651.84;10581607;28;20458;-68
2021/09/12 05:31:51;;;;;;;0.10;0.10;;;;;;;16.32;99.92;101660.53;10581291;28;20123;-68
2021/09/12 05:36:51;;;;;;;0.10;0.10;;;;;;;16.35;100.00;101661.03;10581088;28;20257;-67
2021/09/12 05:41:51;;;;;;;0.10;0.10;;;;;;;16.40;100.00;101650.56;10581399;28;20031;-67
2021/09/12 05:46:52;;;;;;;0.10;0.10;;;;;;;16.46;99.61;101649.03;10581815;27;20023;-67
2021/09/12 05:51:52;;;;;;;0.10;0.10;;;;;;;16.52;99.44;101657.25;10581216;28;20438;-68
2021/09/12 05:56:53;;;;;;;0.10;0.10;;;;;;;16.58;99.00;101655.69;10579851;27;20123;-68
2021/09/12 06:01:53;;;;;;;0.10;0.10;;;;;;;16.65;99.58;101661.19;10580040;28;20015;-67
2021/09/12 06:06:53;;;;;;;0.10;0.10;;;;;;;16.70;98.36;101662.31;10548616;28;20027;-67
2021/09/12 06:11:54;;;;;;;0.10;0.10;;;;;;;16.79;98.93;101670.38;10538081;28;20377;-69
2021/09/12 06:16:54;;;;;;;0.00;0.00;;;;;;;16.85;97.76;101670.50;10537170;28;20026;-68
2021/09/12 06:21:54;;;;;;;0.08;0.08;;;;;;;16.92;97.25;101667.91;10518901;28;20745;-67
2021/09/12 06:26:55;;;;;;;0.10;0.10;;;;;;;16.99;96.91;101671.56;10518502;28;20435;-68
2021/09/12 06:31:55;;;;;;;0.10;0.10;;;;;;;17.04;97.23;101671.84;10517183;28;20480;-67
2021/09/12 06:36:56;;;;;;;0.10;0.10;;;;;;;17.08;96.41;101673.16;10541713;28;20047;-68
2021/09/12 06:41:56;;;;;;;0.00;0.00;;;;;;;17.14;96.78;101672.44;10560404;28;20273;-68
2021/09/12 06:46:57;;;;;;;0.10;0.10;;;;;;;17.23;95.90;101664.28;10578278;28;20054;-67
2021/09/12 06:51:57;;;;;;;0.10;0.10;;;;;;;17.38;95.91;101668.66;10578404;28;20107;-68
2021/09/12 06:56:58;;;;;;;0.10;0.10;;;;;;;17.57;95.00;101671.84;10578237;28;20035;-67
2021/09/12 07:01:58;;;;;;;0.10;0.10;;;;;;;17.73;94.16;101662.75;10578015;28;20022;-67
2021/09/12 07:06:59;;;;;;;0.10;0.10;;;;;;;17.94;92.94;101657.47;10577083;28;20051;-68
2021/09/12 07:11:59;;;;;;;0.10;0.10;;;;;;;18.23;92.73;101648.50;10578180;28;20024;-68
2021/09/12 07:17:00;;;;;;;0.10;0.10;;;;;;;18.71;89.97;101646.13;10558954;28;20034;-68
2021/09/12 07:22:00;;;;;;;0.10;0.10;;;;;;;19.21;89.54;101656.94;10577243;28;20027;-68
2021/09/12 07:27:00;;;;;;;0.10;0.10;;;;;;;19.51;88.22;101660.28;10576656;28;20023;-67
2021/09/12 07:32:01;;;;;;;0.07;0.07;;;;;;;19.71;86.85;101660.44;10577374;28;20376;-68
2021/09/12 07:37:01;;;;;;;0.00;0.00;;;;;;;19.55;87.26;101663.44;10544189;28;20084;-68
2021/09/12 07:42:02;;;;;;;0.00;0.00;;;;;;;19.41;87.52;101667.91;10534175;28;20448;-68
2021/09/12 07:47:02;;;;;;;0.10;0.10;;;;;;;19.63;87.03;101661.41;10533711;28;20484;-67
2021/09/12 07:52:03;;;;;;;0.10;0.10;;;;;;;20.09;85.48;101668.94;10533396;28;20066;-67
2021/09/12 07:57:03;;;;;;;0.00;0.00;;;;;;;20.32;83.84;101662.38;10533463;28;20085;-68
2021/09/12 08:02:04;;;;;;;0.10;0.10;;;;;;;20.07;84.28;101654.81;10533378;28;20023;-68
2021/09/12 08:07:04;;;;;;;0.00;0.00;;;;;;;19.78;84.64;101665.88;10565030;28;20031;-67
2021/09/12 08:12:05;;;;;;;0.10;0.10;;;;;;;19.58;85.77;101673.84;10574964;28;20028;-68
2021/09/12 08:17:05;;;;;;;0.10;0.10;;;;;;;19.38;86.93;101681.81;10574783;28;20027;-68
2021/09/12 08:22:05;;;;;;;0.00;0.00;;;;;;;19.31;87.08;101670.94;10556590;28;20125;-67
2021/09/12 08:27:06;;;;;;;0.00;0.00;;;;;;;19.37;86.55;101678.28;10574607;28;20035;-67
2021/09/12 08:32:06;;;;;;;0.10;0.10;;;;;;;19.26;86.66;101688.75;10575100;28;20536;-66
2021/09/12 08:37:08;;;;;;;0.00;0.00;;;;;;;19.30;86.24;101692.75;10565391;28;20090;-66
2021/09/12 08:42:14;;;;;;;0.00;0.00;;;;;;;19.62;86.56;101699.44;10555902;28;20408;-67
2021/09/12 08:47:16;;;;;;;0.00;0.00;;;;;;;20.26;83.50;101691.06;10555301;28;20019;-67
2021/09/12 08:52:16;;;;;;;0.10;0.10;;;;;;;20.88;80.24;101688.31;10555112;28;20430;-67
2021/09/12 08:57:17;;;;;;;0.10;0.10;;;;;;;20.97;81.39;101681.66;10572503;28;20072;-68
2021/09/12 09:02:25;;;;;;;0.10;0.10;;;;;;;20.83;78.70;101697.09;10573422;28;20019;-67
2021/09/12 09:07:28;;;;;;;0.00;0.00;;;;;;;20.55;80.11;101705.34;10556265;28;20027;-68
2021/09/12 09:12:33;;;;;;;;;;;;;;;20.31;81.97;101707.53;10573833;28;20039;-66
2021/09/12 09:17:57;;;;;;;0.10;0.10;;;;;;;20.44;81.73;101708.59;10572758;28;20037;-67
2021/09/12 09:22:58;;;;;;;0.00;0.00;;;;;;;21.10;78.95;101714.19;10554377;28;20019;-66
2021/09/12 09:28:03;;;;;;;0.00;0.00;;;;;;;21.72;75.32;101712.09;10572753;28;20400;-66
2021/09/12 09:33:17;;;;;;;0.08;0.08;;;;;;;22.13;75.18;101716.34;10572968;28;20433;-67
2021/09/12 09:38:23;;;;;;;0.10;0.10;;;;;;;22.64;73.35;101714.72;10565227;28;20068;-66
2021/09/12 09:43:23;;;;;;;0.10;0.10;;;;;;;22.60;73.90;101714.28;10572667;28;20519;-66
2021/09/12 09:48:31;;;;;;;0.10;0.10;;;;;;;22.38;72.13;101711.91;10571807;28;20038;-66
2021/09/12 09:53:38;;;;;;;0.10;0.10;;;;;;;22.05;72.53;101717.44;10572627;28;20541;-65
2021/09/12 09:58:40;;;;;;;0.10;0.10;;;;;;;22.08;72.64;101718.91;10571216;28;20028;-66
2021/09/12 10:03:41;;;;;;;0.00;0.00;;;;;;;22.31;72.19;101726.53;10568373;28;20107;-66
2021/09/12 10:08:43;;;;;;;0.10;0.10;;;;;;;22.18;71.27;101721.19;10575014;28;20096;-66
2021/09/12 10:13:46;;;;;;;0.00;0.00;;;;;;;21.80;71.40;101716.47;10579928;28;20111;-66
2021/09/12 10:18:47;;;;;;;0.00;0.00;;;;;;;21.93;72.08;101713.72;10560835;28;20024;-65
2021/09/12 10:24:08;;;;;;;0.00;0.00;;;;;;;22.76;72.20;101708.34;10560918;28;20106;-65
2021/09/12 10:29:43;;;;;;;0.10;0.10;;;;;;;23.16;68.12;101708.13;10559946;28;20065;-65
2021/09/12 10:35:13;;;;;;;0.10;0.10;;;;;;;23.00;69.41;101712.19;10570803;28;20024;-66
2021/09/12 10:40:13;;;;;;;0.00;0.00;;;;;;;23.03;68.28;101708.19;10578157;28;20426;-66
2021/09/12 10:45:22;;;;;;;0.10;0.10;;;;;;;22.94;66.20;101710.31;10578216;28;20543;-66
2021/09/12 10:50:45;;;;;;;0.10;0.10;;;;;;;22.60;68.84;101707.00;10577729;28;20296;-65
2021/09/12 10:56:01;;;;;;;0.00;0.00;;;;;;;22.59;71.23;101712.63;10558907;28;20074;-66
2021/09/12 11:01:04;;;;;;;0.10;0.10;;;;;;;22.79;68.14;101707.09;10577380;28;20028;-65
2021/09/12 11:06:04;;;;;;;0.10;0.10;;;;;;;23.05;69.91;101706.09;10569232;28;20561;-65
2021/09/12 11:11:06;;;;;;;0.00;0.00;;;;;;;23.21;67.84;101707.44;10577521;28;20164;-66
2021/09/12 11:16:07;;;;;;;0.00;0.00;;;;;;;23.32;67.28;101705.88;10575956;28;20125;-66
2021/09/12 11:21:08;;;;;;;0.10;0.10;;;;;;;23.19;65.78;101696.78;10577294;28;20034;-65
2021/09/12 11:26:08;;;;;;;0.10;0.10;;;;;;;23.03;66.33;101702.75;10576983;28;20518;-65
2021/09/12 11:31:08;;;;;;;0.10;0.10;;;;;;;22.82;64.91;101709.38;10557648;28;20039;-64
2021/09/12 11:36:09;;;;;;;0.10;0.10;;;;;;;22.55;66.10;101711.41;10568016;28;20103;-65
2021/09/12 11:41:09;;;;;;;0.00;0.00;;;;;;;22.64;67.24;101703.84;10575963;28;20020;-64
2021/09/12 11:46:10;;;;;;;0.00;0.00;;;;;;;22.82;66.05;101691.19;10574983;28;20106;-65
2021/09/12 11:51:11;;;;;;;0.10;0.10;;;;;;;22.96;65.59;101691.13;10573886;28;20047;-64
2021/09/12 11:56:11;;;;;;;0.00;0.00;;;;;;;22.92;65.84;101690.72;10574577;28;20496;-66
2021/09/12 12:01:13;;;;;;;0.10;0.10;;;;;;;22.72;64.72;101685.41;10573749;28;20088;-65
2021/09/12 12:06:14;;;;;;;0.00;0.00;;;;;;;22.59;65.09;101683.59;10566598;28;20338;-66
2021/09/12 12:11:14;;;;;;;0.00;0.00;;;;;;;22.66;66.93;101688.16;10573058;28;20043;-65
2021/09/12 12:16:15;;;;;;;0.10;0.10;;;;;;;22.62;63.94;101679.63;10573703;28;20020;-65
2021/09/12 12:21:15;;;;;;;0.05;0.05;;;;;;;22.54;66.64;101675.31;10574607;28;20417;-65
2021/09/12 12:26:18;;;;;;;0.10;0.10;;;;;;;22.62;67.07;101678.78;10572566;28;20104;-65
2021/09/12 12:31:18;;;;;;;0.00;0.00;;;;;;;22.86;70.09;101677.16;10573800;28;20019;-65
2021/09/12 12:36:21;;;;;;;0.00;0.00;;;;;;;22.99;69.47;101674.38;10565679;28;20030;-65
2021/09/12 12:41:26;;;;;;;0.00;0.00;;;;;;;22.83;66.42;101675.72;10573749;28;20046;-65
2021/09/12 12:46:43;;;;;;;0.10;0.10;;;;;;;22.50;65.46;101668.63;10554631;28;20516;-64
2021/09/12 12:51:59;;;;;;;0.00;0.00;;;;;;;22.39;67.08;101677.44;10573173;28;20492;-65
2021/09/12 12:57:01;;;;;;;0.00;0.00;;;;;;;22.26;68.62;101677.53;10572523;28;20046;-65
2021/09/12 13:02:02;;;;;;;0.00;0.00;;;;;;;21.96;69.40;101666.34;10572960;28;20387;-64
2021/09/12 13:07:04;;;;;;;0.00;0.00;;;;;;;21.59;69.43;101666.03;10564765;28;20019;-66
2021/09/12 13:12:06;;;;;;;0.00;0.00;;;;;;;21.34;72.75;101666.66;10572616;28;20024;-65
2021/09/12 13:17:06;;;;;;;0.10;0.10;;;;;;;20.93;68.45;101683.13;10570904;28;20132;-64
2021/09/12 13:22:06;;;;;;;0.10;0.10;;;;;;;20.32;68.96;101676.72;10573105;28;20016;-65
2021/09/12 13:27:07;;;;;;;0.00;0.00;;;;;;;19.90;71.36;101675.09;10572270;28;20027;-66
2021/09/12 13:32:07;;;;;;;0.10;0.10;;;;;;;19.81;72.97;101674.44;10572822;28;20452;-65
2021/09/12 13:37:07;;;;;;;0.10;0.10;;;;;;;19.87;73.88;101679.03;10564175;28;20028;-65
2021/09/12 13:42:08;;;;;;;0.00;0.00;;;;;;;19.90;73.95;101675.94;10576197;28;20424;-65
2021/09/12 13:47:08;;;;;;;0.10;0.10;;;;;;;19.95;73.65;101674.47;10579964;28;20047;-65
2021/09/12 13:52:08;;;;;;;0.10;0.10;;;;;;;19.99;73.65;101675.78;10580186;28;20049;-65
2021/09/12 13:57:09;;;;;;;0.00;0.00;;;;;;;19.87;73.47;101670.94;10578301;28;20031;-65
2021/09/12 14:02:09;;;;;;;0.10;0.10;;;;;;;19.73;73.35;101673.75;10580094;28;20314;-65
2021/09/12 14:07:10;;;;;;;0.10;0.10;;;;;;;19.58;73.62;101665.75;10562450;28;20479;-66
2021/09/12 14:12:11;;;;;;;0.10;0.10;;;;;;;19.49;72.56;101670.47;10579587;28;20023;-64
2021/09/12 14:17:12;;;;;;;0.00;0.00;;;;;;;19.48;73.84;101670.66;10560554;28;20028;-65
2021/09/12 14:22:12;;;;;;;0.00;0.00;;;;;;;19.39;74.27;101670.78;10579307;28;20030;-64
2021/09/12 14:27:12;;;;;;;0.00;0.00;;;;;;;19.22;75.61;101670.25;10578195;28;20030;-64
2021/09/12 14:32:13;;;;;;;0.10;0.10;;;;;;;19.02;75.83;101666.53;10578693;28;20034;-66
2021/09/12 14:37:13;;;;;;;0.00;0.00;;;;;;;18.90;76.23;101666.22;10551814;28;20020;-66
2021/09/12 14:42:14;;;;;;;0.00;0.00;;;;;;;18.96;76.84;101662.75;10578799;28;20020;-66
2021/09/12 14:47:15;;;;;;;0.00;0.00;;;;;;;19.17;75.68;101670.03;10578145;28;20027;-66
2021/09/12 14:52:15;;;;;;;0.10;0.10;;;;;;;19.22;75.79;101669.41;10576526;28;20478;-65
2021/09/12 14:57:15;;;;;;;0.05;0.05;;;;;;;19.06;76.70;101658.91;10577335;28;20055;-65
2021/09/12 15:02:15;;;;;;;0.10;0.10;;;;;;;18.88;76.36;101665.63;10578209;28;20492;-66
2021/09/12 15:07:16;;;;;;;0.10;0.10;;;;;;;18.77;76.59;101658.84;10552248;28;20605;-65
2021/09/12 15:12:16;;;;;;;0.10;0.10;;;;;;;18.71;76.64;101656.91;10577507;27;20038;-65
2021/09/12 15:17:17;;;;;;;0.10;0.10;;;;;;;18.72;75.99;101661.25;10576587;28;20484;-66
2021/09/12 15:22:17;;;;;;;0.10;0.10;;;;;;;18.83;77.14;101667.22;10577469;28;20020;-64
2021/09/12 15:27:18;;;;;;;0.10;0.10;;;;;;;18.78;77.21;101673.19;10576798;28;20024;-64
2021/09/12 15:32:18;;;;;;;0.00;0.00;;;;;;;18.65;78.21;101670.34;10576487;28;20028;-65
2021/09/12 15:37:18;;;;;;;0.10;0.10;;;;;;;18.54;77.58;101668.97;10576156;28;20536;-66
2021/09/12 15:42:19;;;;;;;0.10;0.10;;;;;;;18.43;75.22;101670.28;10574947;28;20118;-65
2021/09/12 15:47:19;;;;;;;0.00;0.00;;;;;;;18.33;75.19;101670.63;10573793;28;20338;-64
2021/09/12 15:52:20;;;;;;;0.10;0.10;;;;;;;18.26;76.65;101677.78;10575342;28;20054;-66
2021/09/12 15:57:20;;;;;;;0.10;0.10;;;;;;;18.19;77.51;101671.47;10574521;28;20031;-65
2021/09/12 16:02:20;;;;;;;0.10;0.10;;;;;;;18.11;78.40;101668.88;10575093;28;20124;-65
2021/09/12 16:07:20;;;;;;;0.10;0.10;;;;;;;18.01;79.66;101660.28;10557946;28;20031;-65
2021/09/12 16:12:21;;;;;;;0.00;0.00;;;;;;;17.95;79.99;101659.16;10574973;27;20026;-64
2021/09/12 16:17:21;;;;;;;0.00;0.00;;;;;;;17.89;79.26;101676.09;10574524;28;20023;-66
2021/09/12 16:22:22;;;;;;;0.10;0.10;;;;;;;17.82;78.82;101665.19;10574782;28;20392;-63
2021/09/12 16:27:22;;;;;;;0.00;0.00;;;;;;;17.79;78.24;101660.19;10573798;28;20024;-63
2021/09/12 16:32:22;;;;;;;0.05;0.05;;;;;;;17.77;79.64;101662.22;10574229;28;20028;-63
2021/09/12 16:37:23;;;;;;;0.10;0.10;;;;;;;17.75;79.31;101658.03;10565991;28;20026;-63
2021/09/12 16:42:23;;;;;;;0.00;0.00;;;;;;;17.75;78.69;101652.63;10573974;28;20076;-64
2021/09/12 16:47:23;;;;;;;0.10;0.10;;;;;;;17.74;79.48;101656.34;10573372;28;20042;-64
2021/09/12 16:52:24;;;;;;;0.00;0.00;;;;;;;17.71;80.05;101659.41;10573990;28;20301;-64
2021/09/12 16:57:24;;;;;;;0.10;0.10;;;;;;;17.68;79.55;101662.47;10572419;28;20509;-63
2021/09/12 17:02:25;;;;;;;0.00;0.00;;;;;;;17.63;80.68;101652.28;10573370;28;20041;-64
2021/09/12 17:07:26;;;;;;;0.10;0.10;;;;;;;17.57;80.92;101663.75;10565252;28;20062;-63
2021/09/12 17:12:26;;;;;;;0.00;0.00;;;;;;;17.48;81.19;101657.63;10573294;28;20020;-65
2021/09/12 17:17:26;;;;;;;0.10;0.10;;;;;;;17.37;81.32;101655.41;10578814;28;20478;-65
2021/09/12 17:22:26;;;;;;;0.00;0.00;;;;;;;17.22;82.17;101662.59;10581906;28;20479;-65
2021/09/12 17:27:27;;;;;;;0.10;0.10;;;;;;;17.06;81.88;101659.03;10581352;27;20400;-64
2021/09/12 17:32:27;;;;;;;0.10;0.10;;;;;;;16.88;83.44;101656.66;10581834;28;20042;-63
2021/09/12 17:37:28;;;;;;;0.10;0.10;;;;;;;16.73;83.49;101655.75;10580787;28;20391;-65
2021/09/12 17:42:28;;;;;;;0.10;0.10;;;;;;;16.61;83.83;101654.47;10580493;28;20019;-65
2021/09/12 17:47:28;;;;;;;0.10;0.10;;;;;;;16.51;85.14;101671.69;10581456;28;20023;-65
2021/09/12 17:52:29;;;;;;;0.10;0.10;;;;;;;16.45;86.59;101677.78;10581259;28;20046;-65
2021/09/12 17:57:29;;;;;;;0.10;0.10;;;;;;;16.36;86.49;101670.78;10580934;28;20080;-65
2021/09/12 18:02:29;;;;;;;0.10;0.10;;;;;;;16.29;86.27;101680.56;10580667;28;20015;-65
2021/09/12 18:07:29;;;;;;;0.10;0.10;;;;;;;16.22;86.99;101682.28;10579133;28;20020;-65
2021/09/12 18:12:30;;;;;;;0.10;0.10;;;;;;;16.11;86.82;101683.50;10580166;28;20286;-65
2021/09/12 18:17:30;;;;;;;0.10;0.10;;;;;;;16.01;87.85;101696.31;10579833;28;20068;-65
2021/09/12 18:22:30;;;;;;;0.10;0.10;;;;;;;15.91;87.85;101688.47;10579067;28;20098;-65
2021/09/12 18:27:32;;;;;;;0.10;0.10;;;;;;;15.79;89.31;101687.97;10579145;28;20472;-64
2021/09/12 18:32:33;;;;;;;0.05;0.05;;;;;;;15.71;88.10;101688.00;10560557;28;20043;-64
2021/09/12 18:37:33;;;;;;;0.10;0.10;;;;;;;15.63;89.33;101696.06;10555788;28;20118;-65
2021/09/12 18:42:33;;;;;;;0.10;0.10;;;;;;;15.56;89.37;101695.03;10577395;28;20456;-64
2021/09/12 18:47:34;;;;;;;0.20;0.20;;;;;;;15.53;88.81;101708.81;10577892;28;20273;-65
2021/09/12 18:52:35;;;;;;;0.10;0.10;;;;;;;15.43;89.40;101705.47;10576870;28;20118;-64
2021/09/12 18:57:35;;;;;;;0.00;0.00;;;;;;;15.33;89.13;101708.31;10576359;28;20388;-64
2021/09/12 19:02:37;;;;;;;0.10;0.10;;;;;;;15.28;90.29;101721.44;10578810;28;20019;-64
2021/09/12 19:07:39;;;;;;;0.10;0.10;;;;;;;15.21;90.24;101717.72;10577189;28;20039;-65
2021/09/12 19:12:41;;;;;;;0.10;0.10;;;;;;;15.12;90.93;101725.78;10577322;28;20392;-65
2021/09/12 19:17:41;;;;;;;0.10;0.10;;;;;;;15.09;90.71;101726.09;10576969;28;20026;-64
2021/09/12 19:22:42;;;;;;;0.10;0.10;;;;;;;15.06;90.99;101730.97;10577520;28;20126;-64
2021/09/12 19:27:42;;;;;;;0.10;0.10;;;;;;;15.04;91.65;101731.16;10577374;28;20734;-64
2021/09/12 19:32:42;;;;;;;0.10;0.10;;;;;;;15.06;91.07;101736.34;10577117;28;20437;-65
2021/09/12 19:37:45;;;;;;;0.10;0.10;;;;;;;15.04;90.55;101735.66;10537065;28;20261;-64
2021/09/12 19:42:50;;;;;;;0.10;0.10;;;;;;;15.08;91.33;101734.34;10576512;28;20019;-64
2021/09/12 19:47:51;;;;;;;0.10;0.10;;;;;;;15.14;92.40;101736.34;10576179;28;20023;-64
2021/09/12 19:52:55;;;;;;;0.10;0.10;;;;;;;15.18;92.58;101740.38;10575791;28;20031;-64
2021/09/12 19:57:55;;;;;;;0.10;0.10;;;;;;;15.16;92.01;101732.50;10575510;28;20476;-64
2021/09/12 20:02:57;;;;;;;0.10;0.10;;;;;;;15.09;90.49;101733.31;10575348;28;20115;-63
2021/09/12 20:07:57;;;;;;;0.10;0.10;;;;;;;15.00;90.17;101737.00;10556324;28;20426;-63
2021/09/12 20:12:58;;;;;;;0.10;0.10;;;;;;;14.94;89.94;101742.03;10575099;28;20031;-64
2021/09/12 20:17:58;;;;;;;0.10;0.10;;;;;;;14.83;91.29;101734.28;10574481;28;20027;-66
2021/09/12 20:22:58;;;;;;;0.10;0.10;;;;;;;14.77;91.28;101748.38;10574975;28;20456;-63
2021/09/12 20:27:59;;;;;;;0.10;0.10;;;;;;;14.68;91.47;101747.50;10573912;28;20047;-65
2021/09/12 20:32:59;;;;;;;0.10;0.10;;;;;;;14.63;91.55;101757.91;10555693;28;20342;-64
2021/09/12 20:37:59;;;;;;;0.10;0.10;;;;;;;14.57;91.21;101761.22;10557740;28;20099;-65
2021/09/12 20:43:00;;;;;;;0.10;0.10;;;;;;;14.48;91.95;101754.94;10573962;28;20071;-65
2021/09/12 20:48:00;;;;;;;0.10;0.10;;;;;;;14.39;91.90;101752.41;10573327;28;20092;-65
2021/09/12 20:53:01;;;;;;;0.10;0.10;;;;;;;14.29;92.09;101760.59;10572567;28;20111;-64
2021/09/12 20:58:01;;;;;;;0.10;0.10;;;;;;;14.24;92.32;101762.91;10571672;28;20325;-65
2021/09/12 21:03:02;;;;;;;0.10;0.10;;;;;;;14.16;92.73;101760.19;10573525;28;20472;-65
2021/09/12 21:08:02;;;;;;;0.00;0.00;;;;;;;14.09;92.47;101751.13;10539618;28;20522;-65
2021/09/12 21:13:03;;;;;;;0.10;0.10;;;;;;;14.05;93.14;101755.94;10572037;28;20067;-65
2021/09/12 21:18:03;;;;;;;0.10;0.10;;;;;;;13.99;92.96;101754.75;10572178;28;20419;-64
2021/09/12 21:23:05;;;;;;;0.00;0.00;;;;;;;13.95;93.82;101756.03;10573026;28;20055;-63
2021/09/12 21:28:05;;;;;;;0.00;0.00;;;;;;;13.93;94.00;101755.38;10572287;28;20747;-63
2021/09/12 21:33:05;;;;;;;0.10;0.10;;;;;;;13.97;94.58;101758.59;10572620;28;20103;-64
2021/09/12 21:38:06;;;;;;;0.10;0.10;;;;;;;14.03;94.35;101748.06;10572064;28;20282;-64
2021/09/12 21:43:06;;;;;;;0.13;0.13;;;;;;;14.08;93.59;101754.78;10572691;28;20391;-64
2021/09/12 21:48:07;;;;;;;0.10;0.10;;;;;;;14.11;93.70;101752.63;10571050;28;20499;-64
2021/09/12 21:53:07;;;;;;;0.10;0.10;;;;;;;14.08;93.87;101752.09;10572780;28;20028;-63
2021/09/12 21:58:07;;;;;;;0.10;0.10;;;;;;;14.08;94.27;101754.78;10571837;28;20053;-64
2021/09/12 22:03:07;;;;;;;0.10;0.10;;;;;;;14.16;93.78;101754.81;10576959;28;20460;-63
2021/09/12 22:08:08;;;;;;;0.10;0.10;;;;;;;14.17;94.01;101760.03;10566820;28;20016;-63
2021/09/12 22:13:08;;;;;;;0.10;0.10;;;;;;;14.21;93.71;101757.88;10562200;28;20020;-63
2021/09/12 22:18:08;;;;;;;0.10;0.10;;;;;;;14.27;93.85;101743.81;10563335;28;20016;-66
2021/09/12 22:23:11;;;;;;;0.10;0.10;;;;;;;14.24;94.02;101744.13;10547519;28;20024;-64
2021/09/12 22:28:15;;;;;;;0.10;0.10;;;;;;;14.14;93.68;101755.00;10547259;28;20031;-65
2021/09/12 22:33:15;;;;;;;0.10;0.10;;;;;;;14.01;94.45;101751.91;10559039;28;20028;-65
2021/09/12 22:38:16;;;;;;;0.10;0.10;;;;;;;13.89;94.24;101758.53;10556419;28;20027;-64
2021/09/12 22:43:17;;;;;;;0.10;0.10;;;;;;;13.86;95.37;101753.50;10561982;28;20044;-65
2021/09/12 22:48:18;;;;;;;0.08;0.08;;;;;;;13.91;95.85;101752.03;10528441;28;20349;-64
2021/09/12 22:53:18;;;;;;;0.10;0.10;;;;;;;14.02;96.03;101748.22;10552330;28;20491;-64
2021/09/12 22:58:18;;;;;;;0.10;0.10;;;;;;;14.11;95.17;101749.97;10560580;28;20038;-65
2021/09/12 23:03:19;;;;;;;0.10;0.10;;;;;;;14.15;95.74;101755.81;10549056;28;20098;-65